Time;durP1;ratioP1;P1;durP2;ratioP2;P2;SDS_P1;SDS_P2;PMS_P1;PMS_P2;Temp;Humidity;BMP_temperature;BMP_pressure;BME280_temperature;BME280_humidity;BME280_pressure;Samples;Min_cycle;Max_cycle;Signal;HPM_P1;HPM_P2
2021/06/09 00:00:12;;;;;;;15.43;11.70;;;;;;;;;;5014191;28;20436;-67
2021/06/09 00:02:38;;;;;;;14.70;11.87;;;;;;;;;;5012031;28;20949;-67
2021/06/09 00:05:05;;;;;;;14.10;12.67;;;;;;;;;;5013835;28;20448;-67
2021/06/09 00:07:31;;;;;;;13.17;11.87;;;;;;;;;;4997967;28;20457;-67
2021/06/09 00:09:57;;;;;;;14.37;12.87;;;;;;;;;;4994276;28;20401;-67
2021/06/09 00:12:24;;;;;;;14.10;11.40;;;;;;;;;;5008729;28;20510;-67
2021/06/09 00:14:50;;;;;;;13.67;12.10;;;;;;;;;;5013735;28;20396;-67
2021/06/09 00:17:16;;;;;;;14.50;12.33;;;;;;;;;;5012402;28;20451;-67
2021/06/09 00:19:42;;;;;;;15.73;14.03;;;;;;;;;;5013575;28;20446;-67
2021/06/09 00:22:08;;;;;;;13.53;12.13;;;;;;;;;;5012851;28;20908;-67
2021/06/09 00:24:34;;;;;;;18.00;13.07;;;;;;;;;;5010997;28;20466;-67
2021/06/09 00:27:00;;;;;;;15.67;12.07;;;;;;;;;;5004470;28;20474;-67
2021/06/09 00:29:26;;;;;;;14.00;12.60;;;;;;;;;;5013499;28;20414;-67
2021/06/09 00:31:52;;;;;;;15.03;13.43;;;;;;;;;;5003840;28;20475;-67
2021/06/09 00:34:18;;;;;;;14.23;12.73;;;;;;;;;;5000263;28;20458;-67
2021/06/09 00:36:44;;;;;;;15.00;13.00;;;;;;;;;;4999880;28;20465;-68
2021/06/09 00:39:11;;;;;;;16.23;13.10;;;;;;;;;;5013228;28;20454;-67
2021/06/09 00:41:37;;;;;;;13.80;12.07;;;;;;;;;;5006368;28;20440;-67
2021/06/09 00:44:04;;;;;;;12.83;11.53;;;;;;;;;;4993515;28;20436;-67
2021/06/09 00:46:35;;;;;;;15.20;12.27;;;;;;;;;;4999099;28;20522;-67
2021/06/09 00:49:01;;;;;;;13.57;12.17;;;;;;;;;;5013144;28;20461;-67
2021/06/09 00:51:28;;;;;;;14.33;12.43;;;;;;;;;;5007803;28;20984;-67
2021/06/09 00:53:57;;;;;;;15.47;12.83;;;;;;;;;;4993705;28;20409;-67
2021/06/09 00:56:24;;;;;;;14.80;13.30;;;;;;;;;;4997730;28;20455;-67
2021/06/09 00:58:51;;;;;;;15.60;12.87;;;;;;;;;;5007618;28;20428;-67
2021/06/09 01:01:18;;;;;;;17.10;13.30;;;;;;;;;;4996784;28;20432;-67
2021/06/09 01:03:44;;;;;;;16.20;12.80;;;;;;;;;;5013208;28;20460;-68
2021/06/09 01:06:10;;;;;;;14.57;13.03;;;;;;;;;;5010964;28;20483;-67
2021/06/09 01:08:40;;;;;;;15.63;13.20;;;;;;;;;;4993479;28;20401;-68
2021/06/09 01:11:08;;;;;;;14.93;13.37;;;;;;;;;;5008462;28;20522;-67
2021/06/09 01:13:34;;;;;;;15.73;14.03;;;;;;;;;;5012088;28;20450;-67
2021/06/09 01:16:00;;;;;;;14.70;12.97;;;;;;;;;;5013220;28;20841;-67
2021/06/09 01:18:27;;;;;;;14.67;13.10;;;;;;;;;;4996974;28;20932;-68
2021/06/09 01:20:53;;;;;;;16.30;13.60;;;;;;;;;;4993474;28;20515;-67
2021/06/09 01:23:20;;;;;;;14.80;13.20;;;;;;;;;;5007669;28;20435;-67
2021/06/09 01:25:47;;;;;;;16.57;14.30;;;;;;;;;;5011294;28;20478;-67
2021/06/09 01:28:13;;;;;;;16.67;13.87;;;;;;;;;;5011663;28;20951;-67
2021/06/09 01:30:39;;;;;;;17.23;14.03;;;;;;;;;;5012795;28;20478;-67
2021/06/09 01:33:06;;;;;;;15.63;14.00;;;;;;;;;;5000531;28;20479;-67
2021/06/09 01:35:32;;;;;;;16.30;14.07;;;;;;;;;;4993135;28;20436;-68
2021/06/09 01:37:59;;;;;;;15.73;13.97;;;;;;;;;;4993550;28;20428;-67
2021/06/09 01:40:25;;;;;;;17.00;14.20;;;;;;;;;;4993167;28;20479;-67
2021/06/09 01:42:52;;;;;;;17.23;13.87;;;;;;;;;;4993208;28;20574;-67
2021/06/09 01:45:19;;;;;;;17.93;14.90;;;;;;;;;;5010171;28;20511;-68
2021/06/09 01:47:46;;;;;;;17.83;15.03;;;;;;;;;;5010956;28;20966;-67
2021/06/09 01:50:13;;;;;;;16.40;13.60;;;;;;;;;;5012586;28;20427;-67
2021/06/09 01:52:39;;;;;;;17.50;14.47;;;;;;;;;;5012337;28;20431;-67
2021/06/09 01:55:08;;;;;;;15.87;13.97;;;;;;;;;;5012871;28;20462;-67
2021/06/09 01:57:34;;;;;;;16.93;13.33;;;;;;;;;;5011808;28;20822;-67
2021/06/09 02:00:01;;;;;;;16.37;14.67;;;;;;;;;;5012620;28;20883;-67
2021/06/09 02:02:27;;;;;;;17.13;14.77;;;;;;;;;;5011518;28;20948;-67
2021/06/09 02:04:54;;;;;;;16.43;14.20;;;;;;;;;;5012501;28;20483;-67
2021/06/09 02:07:20;;;;;;;16.00;14.37;;;;;;;;;;5010627;28;20454;-67
2021/06/09 02:09:46;;;;;;;19.17;14.17;;;;;;;;;;5012483;28;20408;-67
2021/06/09 02:12:12;;;;;;;17.63;15.50;;;;;;;;;;5011780;28;20506;-67
2021/06/09 02:14:38;;;;;;;17.77;15.30;;;;;;;;;;4996574;28;20774;-68
2021/06/09 02:17:05;;;;;;;17.40;14.10;;;;;;;;;;4998025;28;20468;-67
2021/06/09 02:19:31;;;;;;;15.80;13.60;;;;;;;;;;5015862;28;20467;-68
2021/06/09 02:21:58;;;;;;;16.97;14.43;;;;;;;;;;5015464;28;20491;-67
2021/06/09 02:24:24;;;;;;;16.70;14.40;;;;;;;;;;5016093;28;20454;-67
2021/06/09 02:26:51;;;;;;;20.10;15.53;;;;;;;;;;5015445;28;20955;-68
2021/06/09 02:29:17;;;;;;;17.40;15.00;;;;;;;;;;5027212;28;20435;-67
2021/06/09 02:31:48;;;;;;;17.67;15.07;;;;;;;;;;5011184;28;20543;-67
2021/06/09 02:34:16;;;;;;;19.50;14.53;;;;;;;;;;4996407;28;20420;-67
2021/06/09 02:36:42;;;;;;;18.67;15.60;;;;;;;;;;4995780;28;20443;-67
2021/06/09 02:39:08;;;;;;;15.73;13.67;;;;;;;;;;5028912;28;20423;-67
2021/06/09 02:41:34;;;;;;;18.80;15.13;;;;;;;;;;5015362;28;20392;-67
2021/06/09 02:44:00;;;;;;;16.90;15.10;;;;;;;;;;5001170;28;20417;-67
2021/06/09 02:46:35;;;;;;;16.47;14.77;;;;;;;;;;4995812;28;20483;-67
2021/06/09 02:49:06;;;;;;;17.10;15.30;;;;;;;;;;5012137;28;20511;-67
2021/06/09 02:51:36;;;;;;;18.43;15.20;;;;;;;;;;5015136;28;20474;-67
2021/06/09 02:54:28;;;;;;;18.57;14.60;;;;;;;;;;5014533;28;20434;-67
2021/06/09 02:57:03;;;;;;;16.50;14.73;;;;;;;;;;4999398;28;20806;-67
2021/06/09 02:59:55;;;;;;;16.93;14.67;;;;;;;;;;5014863;28;20479;-67
2021/06/09 03:02:30;;;;;;;17.63;15.40;;;;;;;;;;4991398;28;20431;-71
2021/06/09 03:04:57;;;;;;;19.50;14.73;;;;;;;;;;4995596;28;20531;-67
2021/06/09 03:07:35;;;;;;;21.03;15.83;;;;;;;;;;4997236;28;20868;-67
2021/06/09 03:10:03;;;;;;;19.10;16.10;;;;;;;;;;5014796;28;20415;-67
2021/06/09 03:12:51;;;;;;;20.03;15.30;;;;;;;;;;5014453;28;20492;-67
2021/06/09 03:15:26;;;;;;;17.73;14.40;;;;;;;;;;5014664;28;20438;-67
2021/06/09 03:18:05;;;;;;;24.20;16.57;;;;;;;;;;5014178;28;20439;-67
2021/06/09 03:20:31;;;;;;;16.63;14.93;;;;;;;;;;5014379;28;20388;-70
2021/06/09 03:23:00;;;;;;;17.70;15.33;;;;;;;;;;5001572;28;20495;-67
2021/06/09 03:25:39;;;;;;;19.50;16.00;;;;;;;;;;5013048;28;20522;-67
2021/06/09 03:28:40;;;;;;;19.50;16.10;;;;;;;;;;5183405;23;20894;-84
2021/06/09 03:31:09;;;;;;;16.83;13.97;;;;;;;;;;5001535;28;20428;-84
2021/06/09 03:33:38;;;;;;;18.67;15.23;;;;;;;;;;5034616;28;20866;-84
2021/06/09 03:36:25;;;;;;;18.67;16.27;;;;;;;;;;5044132;28;20414;-84
2021/06/09 03:38:54;;;;;;;18.90;16.50;;;;;;;;;;5064340;22;20766;-68
2021/06/09 03:41:21;;;;;;;19.60;16.27;;;;;;;;;;5014065;28;20799;-68
2021/06/09 03:43:48;;;;;;;18.63;15.70;;;;;;;;;;5013830;28;20831;-68
2021/06/09 03:46:15;;;;;;;19.43;15.30;;;;;;;;;;5013991;28;20458;-68
2021/06/09 03:48:42;;;;;;;17.87;14.73;;;;;;;;;;4993962;28;20450;-68
2021/06/09 03:51:09;;;;;;;19.83;16.60;;;;;;;;;;4994843;28;20489;-68
2021/06/09 03:53:36;;;;;;;19.87;16.13;;;;;;;;;;4993353;28;20443;-68
2021/06/09 03:56:04;;;;;;;21.90;17.53;;;;;;;;;;4994575;28;20430;-69
2021/06/09 03:58:31;;;;;;;16.60;14.83;;;;;;;;;;4993336;28;20940;-69
2021/06/09 04:00:57;;;;;;;17.60;15.10;;;;;;;;;;4994145;28;20408;-69
2021/06/09 04:03:24;;;;;;;19.77;16.20;;;;;;;;;;4993546;28;20432;-69
2021/06/09 04:05:51;;;;;;;19.17;15.77;;;;;;;;;;4992884;28;20895;-68
2021/06/09 04:08:19;;;;;;;18.97;15.33;;;;;;;;;;4993220;28;20819;-68
2021/06/09 04:10:47;;;;;;;17.93;16.03;;;;;;;;;;4994311;28;20413;-69
2021/06/09 04:13:13;;;;;;;16.93;14.50;;;;;;;;;;4993280;28;20431;-69
2021/06/09 04:15:39;;;;;;;20.93;16.10;;;;;;;;;;4993104;28;20454;-68
2021/06/09 04:18:07;;;;;;;17.47;15.53;;;;;;;;;;5010266;28;20479;-68
2021/06/09 04:20:34;;;;;;;19.67;17.07;;;;;;;;;;5013439;28;20408;-69
2021/06/09 04:23:00;;;;;;;18.30;14.90;;;;;;;;;;5008522;28;20436;-69
2021/06/09 04:25:26;;;;;;;18.07;15.90;;;;;;;;;;4993999;28;20448;-68
2021/06/09 04:27:54;;;;;;;17.17;14.97;;;;;;;;;;4992725;28;20465;-69
2021/06/09 04:30:20;;;;;;;17.50;15.70;;;;;;;;;;4993707;28;20413;-69
2021/06/09 04:32:51;;;;;;;20.33;16.97;;;;;;;;;;4992300;28;20404;-68
2021/06/09 04:35:18;;;;;;;20.43;16.50;;;;;;;;;;4993825;28;20500;-69
2021/06/09 04:37:44;;;;;;;18.27;14.20;;;;;;;;;;4992681;28;20476;-69
2021/06/09 04:40:20;;;;;;;20.37;16.40;;;;;;;;;;4993600;28;20825;-69
2021/06/09 04:42:47;;;;;;;16.93;14.77;;;;;;;;;;4992388;28;20496;-69
2021/06/09 04:45:13;;;;;;;20.13;17.53;;;;;;;;;;4993518;28;20531;-69
2021/06/09 04:47:39;;;;;;;18.23;16.10;;;;;;;;;;4993485;28;20452;-68
2021/06/09 04:50:06;;;;;;;20.90;16.03;;;;;;;;;;4998393;28;20484;-68
2021/06/09 04:52:32;;;;;;;19.13;15.63;;;;;;;;;;4996886;28;20452;-68
2021/06/09 04:54:58;;;;;;;22.50;16.10;;;;;;;;;;4998515;28;20409;-69
2021/06/09 04:57:25;;;;;;;17.17;15.23;;;;;;;;;;4997571;28;20456;-69
2021/06/09 04:59:51;;;;;;;20.50;15.13;;;;;;;;;;4997221;28;20408;-68
2021/06/09 05:02:18;;;;;;;19.30;14.90;;;;;;;;;;4992251;28;20583;-68
2021/06/09 05:04:45;;;;;;;18.07;16.17;;;;;;;;;;4993589;28;20594;-69
2021/06/09 05:07:11;;;;;;;18.20;16.27;;;;;;;;;;4993427;28;20788;-69
2021/06/09 05:09:37;;;;;;;16.90;15.00;;;;;;;;;;4994999;28;20931;-69
2021/06/09 05:12:09;;;;;;;18.00;14.10;;;;;;;;;;4992162;28;20424;-69
2021/06/09 05:14:35;;;;;;;17.70;15.30;;;;;;;;;;4993949;28;20412;-68
2021/06/09 05:17:02;;;;;;;20.20;15.83;;;;;;;;;;4992758;28;20839;-69
2021/06/09 05:19:29;;;;;;;17.57;15.70;;;;;;;;;;4993221;28;20415;-69
2021/06/09 05:22:03;;;;;;;17.17;15.20;;;;;;;;;;4992337;28;20432;-69
2021/06/09 05:24:29;;;;;;;19.23;16.53;;;;;;;;;;4993130;28;20921;-69
2021/06/09 05:26:56;;;;;;;21.03;15.63;;;;;;;;;;4993972;28;20476;-69
2021/06/09 05:29:24;;;;;;;18.67;15.60;;;;;;;;;;5013105;28;20434;-68
2021/06/09 05:31:50;;;;;;;19.60;15.67;;;;;;;;;;5008639;28;20516;-69
2021/06/09 05:34:19;;;;;;;16.20;13.43;;;;;;;;;;4993090;28;20467;-69
2021/06/09 05:36:45;;;;;;;17.07;14.57;;;;;;;;;;4992265;28;20879;-69
2021/06/09 05:39:11;;;;;;;19.47;15.47;;;;;;;;;;4993032;28;20425;-69
2021/06/09 05:41:37;;;;;;;17.53;14.37;;;;;;;;;;4992393;28;20764;-69
2021/06/09 05:44:03;;;;;;;16.83;14.60;;;;;;;;;;4992519;28;20503;-67
2021/06/09 05:46:30;;;;;;;16.70;14.80;;;;;;;;;;4995822;28;20464;-68
2021/06/09 05:48:56;;;;;;;18.90;15.83;;;;;;;;;;4996624;28;20770;-67
2021/06/09 05:51:23;;;;;;;21.00;17.10;;;;;;;;;;4996523;28;20409;-67
2021/06/09 05:53:55;;;;;;;17.60;15.13;;;;;;;;;;4995701;28;20416;-67
2021/06/09 05:56:22;;;;;;;17.97;14.77;;;;;;;;;;4996288;28;20797;-67
2021/06/09 05:58:48;;;;;;;17.50;14.00;;;;;;;;;;4995278;28;20428;-67
2021/06/09 06:01:14;;;;;;;15.90;14.17;;;;;;;;;;4996213;28;20408;-67
2021/06/09 06:03:41;;;;;;;18.13;13.67;;;;;;;;;;4995346;28;20420;-67
2021/06/09 06:06:11;;;;;;;18.27;15.07;;;;;;;;;;4996117;28;21036;-67
2021/06/09 06:08:38;;;;;;;16.60;12.40;;;;;;;;;;4995664;28;20447;-67
2021/06/09 06:11:06;;;;;;;15.17;12.77;;;;;;;;;;4996328;28;20753;-67
2021/06/09 06:13:33;;;;;;;16.57;14.80;;;;;;;;;;4994945;28;20483;-67
2021/06/09 06:15:59;;;;;;;16.23;13.97;;;;;;;;;;4996348;28;20432;-67
2021/06/09 06:18:32;;;;;;;15.13;13.40;;;;;;;;;;4994842;28;20555;-67
2021/06/09 06:20:59;;;;;;;15.10;12.53;;;;;;;;;;4996393;28;20507;-68
2021/06/09 06:23:26;;;;;;;17.37;13.80;;;;;;;;;;4996155;28;20432;-68
2021/06/09 06:25:52;;;;;;;14.50;13.00;;;;;;;;;;4996758;28;20456;-68
2021/06/09 06:28:19;;;;;;;16.80;13.33;;;;;;;;;;4995244;28;20508;-68
2021/06/09 06:30:45;;;;;;;19.60;13.90;;;;;;;;;;4995683;28;20431;-68
2021/06/09 06:33:12;;;;;;;16.23;12.83;;;;;;;;;;5006004;28;20482;-68
2021/06/09 06:35:38;;;;;;;14.43;12.20;;;;;;;;;;5015401;28;20423;-68
2021/06/09 06:38:04;;;;;;;16.67;13.90;;;;;;;;;;5010479;28;20936;-68
2021/06/09 06:40:32;;;;;;;16.10;12.90;;;;;;;;;;5015418;28;20450;-68
2021/06/09 06:42:59;;;;;;;15.00;13.40;;;;;;;;;;5009161;28;20455;-68
2021/06/09 06:45:25;;;;;;;14.70;13.17;;;;;;;;;;4995431;28;20598;-68
2021/06/09 06:47:52;;;;;;;13.57;12.17;;;;;;;;;;4992944;28;20459;-68
2021/06/09 06:50:19;;;;;;;15.60;13.27;;;;;;;;;;4995714;28;20737;-67
2021/06/09 06:52:45;;;;;;;16.13;12.60;;;;;;;;;;4994338;28;20437;-67
2021/06/09 06:55:12;;;;;;;17.10;14.63;;;;;;;;;;4995675;28;20412;-67
2021/06/09 06:57:39;;;;;;;16.13;14.10;;;;;;;;;;4993846;28;20742;-67
2021/06/09 07:00:07;;;;;;;16.53;13.03;;;;;;;;;;4995742;28;20508;-67
2021/06/09 07:02:34;;;;;;;16.17;14.07;;;;;;;;;;4994261;28;20952;-68
2021/06/09 07:05:02;;;;;;;16.93;13.30;;;;;;;;;;4992823;28;20500;-67
2021/06/09 07:07:28;;;;;;;17.73;13.20;;;;;;;;;;4994328;28;20448;-68
2021/06/09 07:09:54;;;;;;;18.40;14.20;;;;;;;;;;4990914;28;20467;-67
2021/06/09 07:12:20;;;;;;;15.93;12.73;;;;;;;;;;4987663;28;20969;-67
2021/06/09 07:14:46;;;;;;;15.23;12.33;;;;;;;;;;4990366;28;20444;-66
2021/06/09 07:17:13;;;;;;;16.13;13.07;;;;;;;;;;4991946;28;20468;-65
2021/06/09 07:19:39;;;;;;;16.20;13.53;;;;;;;;;;4991205;28;20425;-66
2021/06/09 07:22:06;;;;;;;20.00;13.80;;;;;;;;;;4993916;28;20476;-66
2021/06/09 07:24:33;;;;;;;13.50;11.70;;;;;;;;;;4986974;28;20437;-69
2021/06/09 07:27:00;;;;;;;14.33;12.80;;;;;;;;;;4989023;28;20510;-65
2021/06/09 07:29:28;;;;;;;14.23;12.63;;;;;;;;;;4991516;28;20936;-70
2021/06/09 07:31:55;;;;;;;14.40;11.40;;;;;;;;;;4990376;28;20416;-69
2021/06/09 07:34:21;;;;;;;17.30;13.40;;;;;;;;;;4991121;28;20437;-69
2021/06/09 07:36:51;;;;;;;13.63;11.63;;;;;;;;;;4991266;28;20447;-69
2021/06/09 07:39:30;;;;;;;17.10;11.43;;;;;;;;;;4990658;28;20863;-70
2021/06/09 07:41:57;;;;;;;13.40;11.77;;;;;;;;;;4991303;28;20405;-68
2021/06/09 07:44:23;;;;;;;13.43;12.03;;;;;;;;;;4987304;28;20534;-69
2021/06/09 07:46:51;;;;;;;12.30;11.00;;;;;;;;;;4989635;28;20575;-69
2021/06/09 07:49:18;;;;;;;13.20;11.40;;;;;;;;;;4993029;28;20447;-69
2021/06/09 07:51:45;;;;;;;13.97;12.13;;;;;;;;;;4995794;28;20944;-69
2021/06/09 07:54:11;;;;;;;13.30;11.40;;;;;;;;;;4991656;28;20432;-68
2021/06/09 07:56:40;;;;;;;14.50;11.93;;;;;;;;;;4989848;28;20440;-70
2021/06/09 07:59:07;;;;;;;13.63;11.77;;;;;;;;;;4990681;28;20431;-71
2021/06/09 08:01:34;;;;;;;15.83;14.00;;;;;;;;;;4987952;28;20468;-70
2021/06/09 08:04:01;;;;;;;12.87;10.90;;;;;;;;;;4986009;28;20787;-69
2021/06/09 08:06:27;;;;;;;17.97;14.10;;;;;;;;;;4992820;28;20527;-71
2021/06/09 08:08:53;;;;;;;12.90;10.83;;;;;;;;;;4989974;28;20428;-66
2021/06/09 08:11:21;;;;;;;16.47;13.83;;;;;;;;;;4992813;28;20767;-71
2021/06/09 08:13:48;;;;;;;13.13;11.83;;;;;;;;;;4985812;28;20467;-69
2021/06/09 08:16:18;;;;;;;15.00;12.00;;;;;;;;;;4983785;28;20440;-68
2021/06/09 08:18:45;;;;;;;13.17;11.23;;;;;;;;;;4991274;28;20482;-68
2021/06/09 08:21:12;;;;;;;12.73;11.40;;;;;;;;;;4989873;28;20445;-67
2021/06/09 08:23:42;;;;;;;18.63;12.00;;;;;;;;;;4980366;28;20428;-69
2021/06/09 08:26:09;;;;;;;12.70;11.20;;;;;;;;;;4984991;28;20471;-67
2021/06/09 08:28:36;;;;;;;12.70;10.50;;;;;;;;;;4985158;28;20735;-68
2021/06/09 08:31:03;;;;;;;14.50;11.87;;;;;;;;;;4992275;28;20535;-68
2021/06/09 08:33:29;;;;;;;16.90;14.20;;;;;;;;;;4988991;28;20520;-67
2021/06/09 08:35:56;;;;;;;17.10;15.30;;;;;;;;;;4989597;28;20448;-70
2021/06/09 08:38:22;;;;;;;14.07;12.67;;;;;;;;;;4991406;28;20498;-68
2021/06/09 08:40:48;;;;;;;16.13;12.40;;;;;;;;;;4991152;28;20463;-67
2021/06/09 08:43:15;;;;;;;13.67;11.70;;;;;;;;;;4988053;28;20432;-67
2021/06/09 08:45:42;;;;;;;19.33;12.87;;;;;;;;;;4990369;28;20486;-68
2021/06/09 08:48:08;;;;;;;13.13;11.83;;;;;;;;;;4987441;28;20467;-68
2021/06/09 08:50:34;;;;;;;14.47;13.00;;;;;;;;;;4989816;28;20439;-67
2021/06/09 08:53:02;;;;;;;12.93;11.60;;;;;;;;;;4987894;28;20424;-69
2021/06/09 08:55:28;;;;;;;15.33;11.43;;;;;;;;;;4991677;28;20420;-67
2021/06/09 08:57:55;;;;;;;15.00;13.40;;;;;;;;;;4992295;28;20432;-67
2021/06/09 09:00:21;;;;;;;16.73;12.87;;;;;;;;;;4989975;28;20496;-67
2021/06/09 09:02:47;;;;;;;14.70;13.10;;;;;;;;;;4992721;28;20499;-67
2021/06/09 09:05:14;;;;;;;15.07;13.40;;;;;;;;;;4982849;28;20995;-67
2021/06/09 09:07:40;;;;;;;16.27;13.23;;;;;;;;;;4992280;28;20431;-67
2021/06/09 09:10:08;;;;;;;15.20;12.70;;;;;;;;;;4987275;28;20944;-67
2021/06/09 09:12:36;;;;;;;16.97;13.77;;;;;;;;;;4992470;28;20456;-67
2021/06/09 09:15:03;;;;;;;20.13;12.60;;;;;;;;;;4990248;28;20428;-68
2021/06/09 09:17:29;;;;;;;14.30;12.73;;;;;;;;;;4989261;28;20580;-68
2021/06/09 09:20:04;;;;;;;14.77;13.10;;;;;;;;;;4991859;28;20825;-67
2021/06/09 09:22:34;;;;;;;15.70;12.30;;;;;;;;;;4996113;28;20493;-67
2021/06/09 09:25:00;;;;;;;15.37;12.77;;;;;;;;;;4994875;28;20463;-67
2021/06/09 09:27:30;;;;;;;14.70;12.47;;;;;;;;;;4994863;28;20432;-67
2021/06/09 09:29:59;;;;;;;15.37;13.77;;;;;;;;;;4992114;28;20436;-67
2021/06/09 09:32:25;;;;;;;17.70;12.50;;;;;;;;;;4995527;28;20486;-67
2021/06/09 09:34:51;;;;;;;12.67;11.33;;;;;;;;;;4993472;28;20990;-67
2021/06/09 09:37:21;;;;;;;13.70;12.17;;;;;;;;;;4995007;28;20501;-68
2021/06/09 09:40:06;;;;;;;15.20;13.60;;;;;;;;;;4994136;28;20464;-67
2021/06/09 09:42:35;;;;;;;14.63;13.07;;;;;;;;;;4993272;28;20850;-66
2021/06/09 09:45:14;;;;;;;13.27;11.23;;;;;;;;;;4992046;28;20459;-68
2021/06/09 09:47:40;;;;;;;15.60;12.90;;;;;;;;;;4994434;28;20447;-67
2021/06/09 09:50:06;;;;;;;15.90;13.27;;;;;;;;;;4993869;28;20925;-69
2021/06/09 09:52:47;;;;;;;12.63;11.37;;;;;;;;;;4994545;28;20987;-69
2021/06/09 09:55:13;;;;;;;12.27;11.03;;;;;;;;;;4990787;28;20439;-68
2021/06/09 09:57:39;;;;;;;15.33;13.73;;;;;;;;;;4993083;28;20492;-69
2021/06/09 10:00:06;;;;;;;15.23;13.63;;;;;;;;;;4994139;28;20436;-69
2021/06/09 10:02:32;;;;;;;13.70;12.30;;;;;;;;;;4995778;28;20749;-69
2021/06/09 10:05:10;;;;;;;14.23;12.70;;;;;;;;;;4993312;28;20464;-68
2021/06/09 10:07:37;;;;;;;13.60;11.67;;;;;;;;;;4995020;28;20448;-68
2021/06/09 10:10:05;;;;;;;14.97;12.20;;;;;;;;;;4994602;28;20469;-68
2021/06/09 10:12:31;;;;;;;11.40;10.20;;;;;;;;;;4995372;28;20557;-68
2021/06/09 10:14:58;;;;;;;12.00;10.80;;;;;;;;;;4997981;28;20479;-69
2021/06/09 10:17:24;;;;;;;14.10;12.60;;;;;;;;;;4992793;28;20452;-70
2021/06/09 10:19:53;;;;;;;12.23;10.47;;;;;;;;;;4994409;28;20450;-70
2021/06/09 10:22:25;;;;;;;14.40;10.93;;;;;;;;;;4988073;28;20490;-68
2021/06/09 10:24:55;;;;;;;11.27;10.10;;;;;;;;;;4992718;28;20815;-66
2021/06/09 10:27:38;;;;;;;9.77;8.87;;;;;;;;;;4993919;28;20519;-68
2021/06/09 10:30:19;;;;;;;12.00;9.33;;;;;;;;;;4981480;28;20432;-69
2021/06/09 10:32:46;;;;;;;11.30;10.20;;;;;;;;;;4987121;28;20767;-69
2021/06/09 10:35:12;;;;;;;14.80;10.27;;;;;;;;;;4991063;28;20743;-69
2021/06/09 10:37:38;;;;;;;10.27;9.23;;;;;;;;;;4994595;28;20475;-68
2021/06/09 10:40:05;;;;;;;10.90;9.70;;;;;;;;;;4990585;28;20447;-68
2021/06/09 10:42:31;;;;;;;9.80;8.80;;;;;;;;;;4994905;28;20439;-67
2021/06/09 10:44:57;;;;;;;9.77;8.60;;;;;;;;;;4993271;28;20519;-67
2021/06/09 10:47:26;;;;;;;8.60;7.73;;;;;;;;;;4987989;28;20961;-69
2021/06/09 10:49:52;;;;;;;8.87;8.00;;;;;;;;;;4994011;28;20411;-68
2021/06/09 10:52:19;;;;;;;9.97;8.97;;;;;;;;;;4991304;28;20436;-67
2021/06/09 10:54:45;;;;;;;9.20;8.20;;;;;;;;;;4994011;28;20435;-67
2021/06/09 10:57:11;;;;;;;11.27;8.77;;;;;;;;;;4992765;28;20454;-70
2021/06/09 10:59:38;;;;;;;10.93;9.10;;;;;;;;;;4990975;28;20963;-69
2021/06/09 11:02:05;;;;;;;8.73;7.90;;;;;;;;;;4992092;28;20433;-70
2021/06/09 11:04:37;;;;;;;8.97;8.07;;;;;;;;;;4994730;28;20804;-70
2021/06/09 11:07:03;;;;;;;9.23;8.03;;;;;;;;;;4989760;28;20869;-67
2021/06/09 11:09:30;;;;;;;9.60;8.70;;;;;;;;;;4994552;28;20416;-67
2021/06/09 11:12:14;;;;;;;11.53;8.70;;;;;;;;;;4994231;28;20432;-67
2021/06/09 11:14:50;;;;;;;11.57;10.37;;;;;;;;;;4994696;28;20400;-70
2021/06/09 11:17:32;;;;;;;9.80;8.80;;;;;;;;;;4994039;28;20439;-67
2021/06/09 11:20:10;;;;;;;8.47;7.63;;;;;;;;;;4984550;28;20550;-70
2021/06/09 11:22:40;;;;;;;10.57;9.47;;;;;;;;;;5001236;28;20436;-69
2021/06/09 11:25:17;;;;;;;9.80;8.80;;;;;;;;;;4995946;28;20547;-68
2021/06/09 11:27:51;;;;;;;9.90;8.57;;;;;;;;;;5012204;22;20499;-73
2021/06/09 11:30:35;;;;;;;9.30;8.40;;;;;;;;;;4974220;28;20917;-74
2021/06/09 11:33:04;;;;;;;11.20;8.73;;;;;;;;;;4966615;28;20492;-73
2021/06/09 11:35:47;;;;;;;9.97;9.00;;;;;;;;;;4973095;28;20524;-69
2021/06/09 11:38:14;;;;;;;9.20;8.30;;;;;;;;;;4959388;28;20523;-71
2021/06/09 11:40:50;;;;;;;8.17;7.37;;;;;;;;;;4960743;28;20476;-74
2021/06/09 11:43:20;;;;;;;8.47;7.77;;;;;;;;;;4963203;28;20769;-71
2021/06/09 11:45:50;;;;;;;8.10;7.37;;;;;;;;;;4962289;28;20454;-71
2021/06/09 11:48:21;;;;;;;11.00;8.47;;;;;;;;;;4955869;28;20521;-69
2021/06/09 11:50:49;;;;;;;8.10;7.30;;;;;;;;;;4970692;28;20450;-71
2021/06/09 11:53:34;;;;;;;9.40;8.43;;;;;;;;;;4955630;28;20818;-72
2021/06/09 11:56:15;;;;;;;10.90;8.13;;;;;;;;;;4936117;29;20504;-72
2021/06/09 11:58:42;;;;;;;6.47;5.83;;;;;;;;;;4945617;28;20529;-71
2021/06/09 12:01:10;;;;;;;9.77;7.30;;;;;;;;;;4962051;28;20773;-72
2021/06/09 12:03:40;;;;;;;8.83;7.93;;;;;;;;;;4950337;28;20442;-69
2021/06/09 12:06:18;;;;;;;6.93;6.23;;;;;;;;;;4952518;28;20466;-73
2021/06/09 12:08:46;;;;;;;11.63;7.10;;;;;;;;;;4954667;28;20473;-71
2021/06/09 12:11:12;;;;;;;8.73;7.93;;;;;;;;;;4953232;28;20484;-72
2021/06/09 12:13:39;;;;;;;9.43;7.80;;;;;;;;;;4955114;28;20429;-71
2021/06/09 12:16:17;;;;;;;11.70;8.60;;;;;;;;;;4952076;29;20430;-71
2021/06/09 12:18:44;;;;;;;10.73;7.80;;;;;;;;;;4953001;28;20529;-71
2021/06/09 12:21:12;;;;;;;7.80;7.10;;;;;;;;;;4952772;29;20418;-72
2021/06/09 12:23:50;;;;;;;8.33;7.43;;;;;;;;;;4952552;28;20802;-71
2021/06/09 12:26:16;;;;;;;8.47;7.10;;;;;;;;;;4967082;28;20457;-71
2021/06/09 12:28:42;;;;;;;7.90;7.20;;;;;;;;;;4960217;28;20562;-71
2021/06/09 12:31:11;;;;;;;10.33;7.27;;;;;;;;;;4954462;28;20395;-71
2021/06/09 12:33:42;;;;;;;8.47;6.70;;;;;;;;;;4952736;28;20432;-72
2021/06/09 12:36:09;;;;;;;8.90;6.90;;;;;;;;;;4968142;28;20794;-72
2021/06/09 12:38:36;;;;;;;9.53;7.73;;;;;;;;;;4959518;28;20454;-68
2021/06/09 12:41:03;;;;;;;7.53;6.50;;;;;;;;;;4978569;28;20425;-68
2021/06/09 12:43:29;;;;;;;7.70;6.63;;;;;;;;;;4964350;28;20540;-68
2021/06/09 12:45:55;;;;;;;6.30;5.77;;;;;;;;;;4957977;28;20457;-76
2021/06/09 12:48:22;;;;;;;7.40;6.10;;;;;;;;;;4957896;28;20536;-70
2021/06/09 12:51:06;;;;;;;7.70;6.90;;;;;;;;;;4961459;28;20488;-71
2021/06/09 12:53:33;;;;;;;8.03;6.80;;;;;;;;;;4950467;28;20923;-72
2021/06/09 12:56:00;;;;;;;8.50;7.57;;;;;;;;;;4953810;28;20854;-72
2021/06/09 12:58:27;;;;;;;7.50;6.73;;;;;;;;;;4956078;28;20448;-72
2021/06/09 13:00:58;;;;;;;7.93;6.87;;;;;;;;;;4955723;28;20441;-72
2021/06/09 13:03:24;;;;;;;8.50;7.70;;;;;;;;;;4963035;28;20423;-71
2021/06/09 13:06:10;;;;;;;9.47;7.83;;;;;;;;;;4973525;28;20456;-71
2021/06/09 13:08:39;;;;;;;7.53;6.20;;;;;;;;;;4951194;28;20800;-70
2021/06/09 13:11:07;;;;;;;8.47;7.63;;;;;;;;;;4952960;28;20434;-72
2021/06/09 13:13:33;;;;;;;8.10;6.63;;;;;;;;;;4962316;28;20434;-72
2021/06/09 13:16:01;;;;;;;8.03;7.00;;;;;;;;;;4964124;28;20436;-72
2021/06/09 13:18:34;;;;;;;11.13;8.37;;;;;;;;;;4951801;28;20487;-69
2021/06/09 13:21:17;;;;;;;13.07;9.10;;;;;;;;;;4956232;28;20469;-73
2021/06/09 13:23:43;;;;;;;14.73;9.57;;;;;;;;;;4954878;28;20441;-71
2021/06/09 13:26:10;;;;;;;11.00;9.30;;;;;;;;;;4962605;28;20455;-72
2021/06/09 13:28:37;;;;;;;10.77;9.27;;;;;;;;;;4956732;28;20589;-71
2021/06/09 13:31:03;;;;;;;10.53;9.33;;;;;;;;;;4965208;28;20429;-72
2021/06/09 13:33:29;;;;;;;12.90;9.20;;;;;;;;;;4955425;28;20430;-72
2021/06/09 13:35:55;;;;;;;10.43;9.37;;;;;;;;;;4959751;28;20511;-69
2021/06/09 13:38:22;;;;;;;11.33;9.30;;;;;;;;;;4959279;28;20461;-70
2021/06/09 13:40:48;;;;;;;11.20;10.07;;;;;;;;;;4954963;28;20433;-72
2021/06/09 13:43:15;;;;;;;11.30;9.70;;;;;;;;;;4951650;28;20510;-72
2021/06/09 13:45:44;;;;;;;11.27;9.47;;;;;;;;;;4966314;28;20883;-72
2021/06/09 13:48:10;;;;;;;11.73;10.03;;;;;;;;;;4967600;28;20536;-73
2021/06/09 13:50:37;;;;;;;12.00;9.13;;;;;;;;;;4951930;28;20525;-70
2021/06/09 13:53:10;;;;;;;11.47;10.27;;;;;;;;;;4952136;28;20437;-72
2021/06/09 13:55:41;;;;;;;11.63;8.47;;;;;;;;;;4953959;28;20418;-71
2021/06/09 13:58:17;;;;;;;9.77;8.57;;;;;;;;;;4955427;28;20866;-69
2021/06/09 14:00:43;;;;;;;10.60;9.50;;;;;;;;;;4954794;28;20481;-68
2021/06/09 14:03:17;;;;;;;9.80;8.80;;;;;;;;;;4952844;28;20436;-68
2021/06/09 14:05:43;;;;;;;9.13;7.70;;;;;;;;;;4954652;28;20469;-68
2021/06/09 14:08:10;;;;;;;8.60;7.10;;;;;;;;;;4957951;28;20442;-68
2021/06/09 14:10:38;;;;;;;8.47;7.10;;;;;;;;;;4956923;28;20427;-68
2021/06/09 14:13:11;;;;;;;9.90;6.70;;;;;;;;;;4962086;28;20441;-69
2021/06/09 14:15:39;;;;;;;9.97;7.50;;;;;;;;;;4958081;28;20434;-68
2021/06/09 14:18:12;;;;;;;9.00;7.57;;;;;;;;;;4957966;28;20446;-68
2021/06/09 14:20:40;;;;;;;8.77;7.27;;;;;;;;;;4960570;28;20439;-69
2021/06/09 14:23:06;;;;;;;8.67;7.73;;;;;;;;;;4958109;28;20426;-69
2021/06/09 14:25:36;;;;;;;9.73;8.17;;;;;;;;;;4955595;28;20548;-69
2021/06/09 14:28:03;;;;;;;10.40;9.40;;;;;;;;;;4956017;28;20465;-69
2021/06/09 14:30:38;;;;;;;12.20;8.20;;;;;;;;;;4952504;28;20425;-68